Northern Seward Peninsula Fax Sheet

SIGMETs

Area Forecast for Northern Seward Peninsula
NRN SEWARD PEN AND LWR KOBUK VLY FI...VALID UNTIL 290800
...CLOUDS/WX...
***AIRMET IFR***W PASH OCNL CIG BLW 010 VIS BLW 3SM BR. IMPR...
OTRW SCT-BKN045 TOPS 100.
TIL 02Z W PASH ISOL CIG BLW 010 VIS BLW  3SM BR.
OTLK VALID 290800-291400...PAOT W IFR CIG SHRASN. ELSW MVFR CIG.
...TURB...
NIL SIG.
...ICE AND FZLVL...
ISOL MOD ICEIC 050-100. FZLVL SFC NW TO 025 SE.

TAFs
PAOT 282342Z 2900/2924 14014KT P6SM SCT040 BKN120 BKN200
     FM290400 10008KT P6SM SCT050 BKN120
     FM291600 08007KT P6SM SCT080 BKN200=
PAOM 282342Z 2900/2924 12012KT P6SM VCSH BKN015 OVC035
      TEMPO 2902/2904 SCT015 BKN040
     FM290400 09008KT P6SM SCT025 BKN060 BKN100
     FM290900 04004KT P6SM SCT050 BKN100 BKN200
     FM292000 12011KT P6SM VCSH BKN050 BKN100=

Observations
PAOM  MA 28 2251Z FEW012 SCT017 OVC036      10          36  34 12012     994  92%  27    
PAOT  AA 28 2253Z CLR                       10          38  30 14016     995  73%  28    
PAPO  AA 28 2256Z OVC011                    10 R-       34  30 12003     996  85%  34    
PASH  AA 28 2256Z SCT025 OVC031              2          30  27 23005     999  88%  24    
PASK  AA 28 2256Z CLR                       10          36  28 06011     000  72%  28    
PAFM  AA 28 2256Z CLR                       10          43  19 14007     004  38%  38    
PAGL  AA 28 2256Z CLR                       10          41  28 00000     999  59%  41    
PAKK  AA 28 2256Z OVC031                    10          36  19 18005     997  50%  31    
PAIK  AA 28 2301Z CLR                       10          46  22 09008     000  38%  41    
PALU  AA 28 2255Z BKN065                    10          32  25 06003     996  75%  32    
PATC  AA 28 2255Z SCT004 OVC029             10          32  32 18010     991 100%  23    

Pilot Reports